Time;durP1;ratioP1;P1;durP2;ratioP2;P2;SDS_P1;SDS_P2;PMS_P1;PMS_P2;Temp;Humidity;BMP_temperature;BMP_pressure;BME280_temperature;BME280_humidity;BME280_pressure;Samples;Min_cycle;Max_cycle;Signal;HPM_P1;HPM_P2
2022/01/20 00:01:40;;;;;;;;;;;-0.70;78.60;;;;;;5023245;28;87002;-42
2022/01/20 00:03:59;;;;;;;;;;;-0.60;78.60;;;;;;5023478;28;88240;-42
2022/01/20 00:28:17;;;;;;;;;;;-0.70;78.80;;;;;;5024949;28;87314;-42
2022/01/20 00:31:09;;;;;;;;;;;-0.70;78.90;;;;;;5026853;28;86311;-42
2022/01/20 00:33:42;;;;;;;;;;;-0.70;78.80;;;;;;5026399;28;88241;-42
2022/01/20 00:38:35;;;;;;;;;;;-0.80;78.80;;;;;;5028730;28;88021;-42
2022/01/20 00:41:01;;;;;;;;;;;-0.70;78.80;;;;;;5025560;28;89278;-42
2022/01/20 00:43:26;;;;;;;;;;;-0.70;78.80;;;;;;5026068;28;87050;-42
2022/01/20 00:45:52;;;;;;;;;;;-0.70;78.80;;;;;;5026442;28;88045;-42
2022/01/20 00:48:18;;;;;;;;;;;-0.70;78.60;;;;;;5025636;28;89759;-42
2022/01/20 00:50:43;;;;;;;;;;;-0.70;78.70;;;;;;5026135;28;87142;-42
2022/01/20 00:53:09;;;;;;;;;;;-0.80;78.70;;;;;;5026026;28;88792;-42
2022/01/20 00:55:34;;;;;;;;;;;-0.80;78.80;;;;;;5026479;28;87361;-42
2022/01/20 00:58:00;;;;;;;;;;;-0.80;78.80;;;;;;5025629;28;87082;-42
2022/01/20 01:00:26;;;;;;;;;;;-0.80;78.70;;;;;;5028596;28;89020;-42
2022/01/20 01:02:51;;;;;;;;;;;-0.80;78.70;;;;;;5025223;28;88103;-42
2022/01/20 01:05:17;;;;;;;;;;;-0.80;78.70;;;;;;5025708;28;89726;-42
2022/01/20 01:10:12;;;;;;;;;;;-0.80;78.80;;;;;;5025859;28;87109;-42
2022/01/20 01:12:52;;;;;;;;;;;-0.80;78.80;;;;;;5025738;28;88510;-42
2022/01/20 01:15:25;;;;;;;;;;;-0.80;78.80;;;;;;5025667;28;89617;-42
2022/01/20 01:21:28;;;;;;;;;;;-0.80;78.70;;;;;;5026340;28;86151;-42
2022/01/20 01:23:21;;;;;;;;;;;-0.90;78.90;;;;;;5023510;28;87352;-42
2022/01/20 01:25:47;;;;;;;;;;;-0.80;78.80;;;;;;5025473;28;88519;-42
2022/01/20 01:28:12;;;;;;;;;;;-0.80;78.80;;;;;;5024522;28;90247;-42
2022/01/20 01:31:05;;;;;;;;;;;-0.80;78.80;;;;;;5025324;28;87038;-42
2022/01/20 01:33:29;;;;;;;;;;;-0.90;78.80;;;;;;5024707;28;86857;-42
2022/01/20 01:35:58;;;;;;;;;;;-0.90;78.80;;;;;;5025166;28;89488;-42
2022/01/20 01:40:50;;;;;;;;;;;-0.90;78.70;;;;;;5025261;28;87309;-42
2022/01/20 01:43:20;;;;;;;;;;;-0.80;78.70;;;;;;5025217;28;87570;-42
2022/01/20 01:45:46;;;;;;;;;;;-0.80;78.70;;;;;;5028677;28;86147;-42
2022/01/20 01:48:12;;;;;;;;;;;-0.80;78.80;;;;;;5024777;28;88327;-42
2022/01/20 01:50:37;;;;;;;;;;;-0.90;78.80;;;;;;5025163;28;87019;-42
2022/01/20 01:53:04;;;;;;;;;;;-0.90;78.90;;;;;;5024618;28;88490;-42
2022/01/20 01:55:30;;;;;;;;;;;-0.90;78.80;;;;;;5024671;28;90025;-42
2022/01/20 01:57:55;;;;;;;;;;;-0.90;78.90;;;;;;5025029;28;87027;-42
2022/01/20 02:00:21;;;;;;;;;;;-0.90;78.90;;;;;;5024932;28;88967;-42
2022/01/20 02:02:47;;;;;;;;;;;-0.80;78.80;;;;;;5024262;28;88617;-42
2022/01/20 02:05:14;;;;;;;;;;;-0.80;78.80;;;;;;5027772;28;86968;-42
2022/01/20 02:21:08;;;;;;;;;;;-0.90;78.80;;;;;;5024963;28;87584;-42
2022/01/20 02:23:34;;;;;;;;;;;-0.90;78.80;;;;;;5024151;28;89728;-42
2022/01/20 02:25:59;;;;;;;;;;;-0.90;78.80;;;;;;5024408;28;86952;-42
2022/01/20 02:28:27;;;;;;;;;;;-0.90;78.80;;;;;;5027016;28;88862;-42
2022/01/20 02:30:53;;;;;;;;;;;-0.90;78.80;;;;;;5024533;28;87118;-42
2022/01/20 02:33:19;;;;;;;;;;;-0.90;79.00;;;;;;5024787;28;87476;-42
2022/01/20 02:35:46;;;;;;;;;;;-0.90;78.90;;;;;;5024430;28;89247;-42
2022/01/20 02:38:18;;;;;;;;;;;-1.00;78.90;;;;;;5024443;28;87022;-42
2022/01/20 02:45:55;;;;;;;;;;;-0.90;78.80;;;;;;5021987;28;86942;-42
2022/01/20 02:48:20;;;;;;;;;;;-1.00;78.90;;;;;;5024393;28;88594;-42
2022/01/20 02:50:46;;;;;;;;;;;-1.00;78.90;;;;;;5026796;28;89489;-42
2022/01/20 02:53:11;;;;;;;;;;;-1.00;78.70;;;;;;5024053;28;88545;-42
2022/01/20 02:55:37;;;;;;;;;;;-1.00;78.90;;;;;;5023742;28;89729;-42
2022/01/20 02:58:03;;;;;;;;;;;-1.00;79.50;;;;;;5023996;28;87127;-42
2022/01/20 03:00:28;;;;;;;;;;;-1.00;78.90;;;;;;5024694;28;88295;-42
2022/01/20 03:02:56;;;;;;;;;;;-0.90;78.90;;;;;;5023657;28;89353;-42
2022/01/20 03:05:21;;;;;;;;;;;-1.00;78.80;;;;;;5024033;28;86994;-42
2022/01/20 03:07:47;;;;;;;;;;;-0.90;78.90;;;;;;5023241;28;88771;-42
2022/01/20 03:10:13;;;;;;;;;;;-1.00;79.00;;;;;;5023584;28;89427;-42
2022/01/20 03:12:38;;;;;;;;;;;-1.00;78.90;;;;;;5026721;28;87183;-42
2022/01/20 03:15:04;;;;;;;;;;;-1.00;79.00;;;;;;5023598;28;88054;-42
2022/01/20 03:17:30;;;;;;;;;;;-1.00;79.00;;;;;;5023655;28;87164;-42
2022/01/20 03:19:56;;;;;;;;;;;-1.00;78.90;;;;;;5023743;28;88808;-42
2022/01/20 03:22:21;;;;;;;;;;;-1.00;78.90;;;;;;5023200;28;89620;-42
2022/01/20 03:24:47;;;;;;;;;;;-1.00;78.90;;;;;;5024113;28;86437;-42
2022/01/20 03:27:12;;;;;;;;;;;-1.00;78.90;;;;;;5023764;28;87416;-42
2022/01/20 03:29:38;;;;;;;;;;;-1.00;78.90;;;;;;5023438;28;88211;-42
2022/01/20 03:32:03;;;;;;;;;;;-1.00;78.90;;;;;;5022875;28;88102;-42
2022/01/20 03:34:29;;;;;;;;;;;-1.10;78.90;;;;;;5026537;28;88211;-42
2022/01/20 03:36:54;;;;;;;;;;;-1.10;78.80;;;;;;5023613;28;87157;-42
2022/01/20 03:39:20;;;;;;;;;;;-1.10;78.90;;;;;;5023549;28;87894;-42
2022/01/20 03:41:46;;;;;;;;;;;-1.10;78.90;;;;;;5022722;28;89260;-42
2022/01/20 03:44:11;;;;;;;;;;;-1.10;78.90;;;;;;5023191;28;87166;-42
2022/01/20 03:46:37;;;;;;;;;;;-1.10;78.90;;;;;;5023520;28;88776;-42
2022/01/20 03:49:21;;;;;;;;;;;-1.10;78.80;;;;;;5023530;28;88726;-42
2022/01/20 03:51:46;;;;;;;;;;;-1.10;78.90;;;;;;5023461;28;86963;-42
2022/01/20 03:54:12;;;;;;;;;;;-1.10;78.80;;;;;;5025848;28;89062;-42
2022/01/20 03:56:37;;;;;;;;;;;-1.10;78.80;;;;;;5025934;28;88253;-42
2022/01/20 03:59:03;;;;;;;;;;;-1.10;78.80;;;;;;5029950;28;89715;-42
2022/01/20 04:01:28;;;;;;;;;;;-1.10;78.80;;;;;;5029622;28;89440;-42
2022/01/20 04:03:54;;;;;;;;;;;-1.10;78.80;;;;;;5029795;28;87055;-42
2022/01/20 04:06:19;;;;;;;;;;;-1.10;78.80;;;;;;5029854;28;88893;-42
2022/01/20 04:08:46;;;;;;;;;;;-1.10;78.70;;;;;;5029719;28;89179;-42
2022/01/20 04:11:15;;;;;;;;;;;-1.10;78.70;;;;;;5029863;28;87150;-42
2022/01/20 04:13:41;;;;;;;;;;;-1.20;78.70;;;;;;5030180;28;88874;-42
2022/01/20 04:16:13;;;;;;;;;;;-1.20;78.70;;;;;;5032281;28;89335;-42
2022/01/20 04:18:40;;;;;;;;;;;-1.20;78.70;;;;;;5029899;28;86876;-42
2022/01/20 04:21:05;;;;;;;;;;;-1.20;78.80;;;;;;5028542;28;90909;-42
2022/01/20 04:23:31;;;;;;;;;;;-1.20;79.30;;;;;;5029710;28;86921;-42
2022/01/20 04:25:56;;;;;;;;;;;-1.20;78.70;;;;;;5029552;28;88910;-42
2022/01/20 04:28:22;;;;;;;;;;;-1.20;78.80;;;;;;5029171;28;89565;-42
2022/01/20 04:30:48;;;;;;;;;;;-1.20;78.80;;;;;;5029677;28;87138;-42
2022/01/20 04:33:14;;;;;;;;;;;-1.20;78.80;;;;;;5029555;28;88866;-42
2022/01/20 04:35:39;;;;;;;;;;;-1.20;78.80;;;;;;5029068;28;88066;-42
2022/01/20 04:38:06;;;;;;;;;;;-1.20;78.50;;;;;;5032749;28;86298;-42
2022/01/20 04:40:38;;;;;;;;;;;-1.30;78.60;;;;;;5028892;28;88580;-42
2022/01/20 04:43:03;;;;;;;;;;;-1.30;78.60;;;;;;5029474;28;86939;-42
2022/01/20 04:45:34;;;;;;;;;;;-1.30;78.70;;;;;;5028868;28;88825;-42
2022/01/20 04:48:17;;;;;;;;;;;-1.30;78.70;;;;;;5028827;28;89319;-42
2022/01/20 04:58:55;;;;;;;;;;;-1.30;78.40;;;;;;5027219;28;87037;-41
2022/01/20 05:01:20;;;;;;;;;;;-1.30;78.50;;;;;;5031918;28;87220;-42
2022/01/20 05:03:46;;;;;;;;;;;-1.30;78.50;;;;;;5029475;28;86467;-42
2022/01/20 05:06:12;;;;;;;;;;;-1.30;78.50;;;;;;5029072;28;88357;-42
2022/01/20 05:08:37;;;;;;;;;;;-1.30;78.40;;;;;;5025594;28;89549;-42
2022/01/20 05:11:04;;;;;;;;;;;-1.40;78.30;;;;;;5024989;28;88092;-42
2022/01/20 05:13:35;;;;;;;;;;;-1.40;78.60;;;;;;5025697;28;90035;-42
2022/01/20 05:16:01;;;;;;;;;;;-1.30;78.40;;;;;;5025864;28;88002;-43
2022/01/20 05:18:27;;;;;;;;;;;-1.30;78.40;;;;;;5025564;28;87092;-42
2022/01/20 05:20:52;;;;;;;;;;;-1.30;78.30;;;;;;5025894;28;88948;-42
2022/01/20 05:23:18;;;;;;;;;;;-1.40;78.50;;;;;;5028070;28;88554;-42
2022/01/20 05:25:44;;;;;;;;;;;-1.40;78.30;;;;;;5025133;28;88983;-42
2022/01/20 05:28:09;;;;;;;;;;;-1.40;78.20;;;;;;5025546;28;89227;-42
2022/01/20 05:30:35;;;;;;;;;;;-1.40;78.40;;;;;;5025628;28;86967;-42
2022/01/20 05:33:00;;;;;;;;;;;-1.40;78.30;;;;;;5025579;28;86945;-42
2022/01/20 05:35:27;;;;;;;;;;;-1.40;78.40;;;;;;5024379;28;90383;-42
2022/01/20 05:37:52;;;;;;;;;;;-1.40;78.30;;;;;;5025415;28;87136;-42
2022/01/20 05:40:18;;;;;;;;;;;-1.50;78.40;;;;;;5025201;28;87314;-42
2022/01/20 05:42:43;;;;;;;;;;;-1.40;78.50;;;;;;5024845;28;87834;-42
2022/01/20 05:45:09;;;;;;;;;;;-1.40;78.20;;;;;;5028186;28;86954;-42
2022/01/20 05:47:42;;;;;;;;;;;-1.40;78.10;;;;;;5025010;28;88424;-42
2022/01/20 05:50:08;;;;;;;;;;;-1.40;78.20;;;;;;5025465;28;87180;-42
2022/01/20 05:52:36;;;;;;;;;;;-1.40;78.10;;;;;;5025596;28;89252;-42
2022/01/20 05:55:01;;;;;;;;;;;-1.40;78.10;;;;;;5024566;28;89644;-42
2022/01/20 05:57:27;;;;;;;;;;;-1.40;78.10;;;;;;5025109;28;86943;-42
2022/01/20 05:59:52;;;;;;;;;;;-1.40;78.00;;;;;;5024375;28;88154;-42
2022/01/20 06:03:35;;;;;;;;;;;-1.50;78.10;;;;;;5024550;28;89276;-42
2022/01/20 06:05:18;;;;;;;;;;;-1.50;78.00;;;;;;5027131;28;87107;-42
2022/01/20 06:07:44;;;;;;;;;;;-1.50;78.10;;;;;;5024361;28;89612;-42
2022/01/20 06:10:09;;;;;;;;;;;-1.50;78.10;;;;;;5024977;28;87152;-42
2022/01/20 06:12:35;;;;;;;;;;;-1.50;78.10;;;;;;5024697;28;88970;-42
2022/01/20 06:15:00;;;;;;;;;;;-1.50;78.00;;;;;;5024410;28;89414;-42
2022/01/20 06:17:28;;;;;;;;;;;-1.50;78.00;;;;;;5025027;28;86451;-43
2022/01/20 06:19:53;;;;;;;;;;;-1.60;77.80;;;;;;5024214;28;88279;-42
2022/01/20 06:22:19;;;;;;;;;;;-1.60;77.90;;;;;;5024203;28;89346;-42
2022/01/20 06:24:45;;;;;;;;;;;-1.50;78.00;;;;;;5024086;28;88024;-42
2022/01/20 06:27:10;;;;;;;;;;;-1.60;78.10;;;;;;5027137;28;90201;-42
2022/01/20 06:29:36;;;;;;;;;;;-1.60;77.80;;;;;;5024481;28;87015;-42
2022/01/20 06:32:01;;;;;;;;;;;-1.60;77.60;;;;;;5024523;28;87576;-42
2022/01/20 06:34:27;;;;;;;;;;;-1.60;77.90;;;;;;5024211;28;89613;-42
2022/01/20 06:36:52;;;;;;;;;;;-1.60;77.80;;;;;;5024418;28;87162;-42
2022/01/20 06:39:18;;;;;;;;;;;-1.60;77.60;;;;;;5024667;28;88903;-42
2022/01/20 06:41:44;;;;;;;;;;;-1.60;77.90;;;;;;5024340;28;87450;-42
2022/01/20 06:44:09;;;;;;;;;;;-1.60;77.70;;;;;;5024279;28;87159;-42
2022/01/20 06:46:35;;;;;;;;;;;-1.60;77.50;;;;;;5024454;28;89058;-42
2022/01/20 06:49:00;;;;;;;;;;;-1.60;77.50;;;;;;5026308;28;88992;-42
2022/01/20 06:51:26;;;;;;;;;;;-1.50;77.50;;;;;;5023814;28;89709;-42
2022/01/20 06:53:51;;;;;;;;;;;-1.60;77.60;;;;;;5023721;28;89254;-42
2022/01/20 06:56:17;;;;;;;;;;;-1.60;77.70;;;;;;5024082;28;87126;-42
2022/01/20 06:58:42;;;;;;;;;;;-1.50;77.60;;;;;;5024288;28;87372;-42
2022/01/20 07:01:08;;;;;;;;;;;-1.60;77.20;;;;;;5023730;28;89651;-42
2022/01/20 07:03:33;;;;;;;;;;;-1.60;77.40;;;;;;5024154;28;87222;-42
2022/01/20 07:05:59;;;;;;;;;;;-1.60;77.30;;;;;;5024314;28;88824;-42
2022/01/20 07:08:24;;;;;;;;;;;-1.60;77.30;;;;;;5023502;28;89560;-42
2022/01/20 07:10:50;;;;;;;;;;;-1.60;77.50;;;;;;5027052;28;87136;-42
2022/01/20 07:13:16;;;;;;;;;;;-1.60;77.60;;;;;;5022797;28;90482;-42
2022/01/20 07:15:41;;;;;;;;;;;-1.60;77.60;;;;;;5023754;28;86840;-42
2022/01/20 07:18:07;;;;;;;;;;;-1.60;77.50;;;;;;5023851;28;88725;-42
2022/01/20 07:20:32;;;;;;;;;;;-1.60;77.50;;;;;;5023518;28;88526;-42
2022/01/20 07:22:58;;;;;;;;;;;-1.50;77.30;;;;;;5023554;28;87156;-42
2022/01/20 07:25:23;;;;;;;;;;;-1.60;77.20;;;;;;5024031;28;87541;-42
2022/01/20 07:27:49;;;;;;;;;;;-1.50;77.40;;;;;;5023395;28;89667;-42
2022/01/20 07:30:14;;;;;;;;;;;-1.50;77.20;;;;;;5024244;28;86469;-42
2022/01/20 07:32:40;;;;;;;;;;;-1.50;77.10;;;;;;5025651;28;88470;-42
2022/01/20 07:35:06;;;;;;;;;;;-1.60;77.30;;;;;;5023526;28;87166;-42
2022/01/20 07:37:32;;;;;;;;;;;-1.60;77.20;;;;;;5023057;28;89311;-42
2022/01/20 07:39:57;;;;;;;;;;;-1.60;77.30;;;;;;5023300;28;88220;-42
2022/01/20 07:42:23;;;;;;;;;;;-1.60;77.30;;;;;;5023453;28;86995;-42
2022/01/20 07:44:49;;;;;;;;;;;-1.60;77.10;;;;;;5023516;28;88803;-42
2022/01/20 07:47:15;;;;;;;;;;;-1.60;77.30;;;;;;5023357;28;88300;-42
2022/01/20 07:49:41;;;;;;;;;;;-1.60;77.40;;;;;;5023313;28;87022;-42
2022/01/20 07:52:06;;;;;;;;;;;-1.60;77.30;;;;;;5023052;28;88799;-42
2022/01/20 07:54:32;;;;;;;;;;;-1.60;77.40;;;;;;5026288;28;88970;-42
2022/01/20 07:56:57;;;;;;;;;;;-1.70;77.10;;;;;;5023254;28;88151;-42
2022/01/20 07:59:24;;;;;;;;;;;-1.60;77.40;;;;;;5022983;28;89620;-42
2022/01/20 08:01:51;;;;;;;;;;;-1.60;77.10;;;;;;5022604;28;87999;-42
2022/01/20 08:04:17;;;;;;;;;;;-1.70;77.20;;;;;;5023138;28;89667;-42
2022/01/20 08:06:42;;;;;;;;;;;-1.70;77.50;;;;;;5022688;28;89574;-42
2022/01/20 08:09:09;;;;;;;;;;;-1.60;77.40;;;;;;5023255;28;87079;-42
2022/01/20 08:11:34;;;;;;;;;;;-1.70;77.40;;;;;;5023141;28;88726;-42
2022/01/20 08:14:00;;;;;;;;;;;-1.70;77.40;;;;;;5025911;28;88139;-42
2022/01/20 08:16:25;;;;;;;;;;;-1.70;77.40;;;;;;5023100;28;88811;-42
2022/01/20 08:18:53;;;;;;;;;;;-1.70;77.40;;;;;;5023283;28;87525;-42
2022/01/20 08:21:19;;;;;;;;;;;-1.70;77.40;;;;;;5022945;28;87096;-42
2022/01/20 08:23:44;;;;;;;;;;;-1.70;77.60;;;;;;5022854;28;88323;-42
2022/01/20 08:26:10;;;;;;;;;;;-1.80;77.80;;;;;;5021890;28;90606;-42
2022/01/20 08:28:35;;;;;;;;;;;-1.70;77.70;;;;;;5022840;28;87137;-42
2022/01/20 08:31:01;;;;;;;;;;;-1.80;77.90;;;;;;5023089;28;88889;-42
2022/01/20 08:33:26;;;;;;;;;;;-1.70;77.80;;;;;;5022531;28;90147;-42
2022/01/20 08:35:52;;;;;;;;;;;-1.70;77.80;;;;;;5025594;28;87163;-42
2022/01/20 08:38:17;;;;;;;;;;;-1.70;77.60;;;;;;5022320;28;89247;-42
2022/01/20 08:40:43;;;;;;;;;;;-1.70;77.80;;;;;;5022287;28;90346;-41
2022/01/20 08:43:09;;;;;;;;;;;-1.70;77.90;;;;;;5023922;28;89038;-42
2022/01/20 08:45:35;;;;;;;;;;;-1.70;77.80;;;;;;5025819;28;89422;-42
2022/01/20 08:48:01;;;;;;;;;;;-1.80;78.00;;;;;;5026398;28;87010;-42
2022/01/20 08:50:27;;;;;;;;;;;-1.80;78.10;;;;;;5025251;28;89055;-42
2022/01/20 08:52:53;;;;;;;;;;;-1.90;78.20;;;;;;5025614;28;89465;-42
2022/01/20 08:55:19;;;;;;;;;;;-1.90;78.30;;;;;;5026002;28;86847;-41
2022/01/20 08:57:45;;;;;;;;;;;-1.90;78.50;;;;;;5028660;28;87423;-42
2022/01/20 09:00:11;;;;;;;;;;;-1.90;78.60;;;;;;5025818;28;87119;-42
2022/01/20 09:02:37;;;;;;;;;;;-2.00;78.70;;;;;;5025828;28;88953;-42
2022/01/20 09:05:03;;;;;;;;;;;-2.00;78.90;;;;;;5025313;28;89569;-42
2022/01/20 09:07:29;;;;;;;;;;;-2.00;78.90;;;;;;5026375;28;86457;-42
2022/01/20 09:09:56;;;;;;;;;;;-2.00;79.00;;;;;;5026018;28;86901;-42
2022/01/20 09:17:44;;;;;;;;;;;-2.00;78.90;;;;;;5025817;28;87706;-42
2022/01/20 09:20:10;;;;;;;;;;;-2.00;79.20;;;;;;5028387;28;89080;-42
2022/01/20 09:22:36;;;;;;;;;;;-2.00;79.30;;;;;;5025723;28;88035;-42
2022/01/20 09:25:02;;;;;;;;;;;-2.00;79.30;;;;;;5025284;28;88036;-42
2022/01/20 09:27:28;;;;;;;;;;;-2.00;79.10;;;;;;5025613;28;87120;-42
2022/01/20 09:29:54;;;;;;;;;;;-2.00;79.20;;;;;;5025887;28;86856;-42
2022/01/20 09:32:20;;;;;;;;;;;-2.00;79.20;;;;;;5025393;28;88410;-42
2022/01/20 09:34:46;;;;;;;;;;;-2.00;79.40;;;;;;5025485;28;87157;-42
2022/01/20 09:37:12;;;;;;;;;;;-2.00;79.60;;;;;;5025433;28;88317;-42
2022/01/20 09:39:39;;;;;;;;;;;-2.00;79.60;;;;;;5024297;28;89260;-42
2022/01/20 09:42:05;;;;;;;;;;;-2.00;79.60;;;;;;5028005;28;87193;-42
2022/01/20 09:44:32;;;;;;;;;;;-2.00;79.60;;;;;;5024956;28;88349;-42
2022/01/20 09:46:57;;;;;;;;;;;-2.00;79.60;;;;;;5025076;28;87189;-42
2022/01/20 09:49:23;;;;;;;;;;;-2.00;79.70;;;;;;5025301;28;88956;-42
2022/01/20 09:51:48;;;;;;;;;;;-2.00;79.60;;;;;;5023499;28;91833;-42
2022/01/20 09:54:14;;;;;;;;;;;-2.00;79.70;;;;;;5024652;28;87061;-42
2022/01/20 09:56:41;;;;;;;;;;;-2.00;79.80;;;;;;5025532;28;88894;-42
2022/01/20 09:59:07;;;;;;;;;;;-2.00;79.70;;;;;;5024586;28;89295;-42
2022/01/20 10:01:35;;;;;;;;;;;-2.00;79.70;;;;;;5024921;28;87087;-42
2022/01/20 10:04:01;;;;;;;;;;;-2.10;79.70;;;;;;5027153;28;87777;-42
2022/01/20 10:06:26;;;;;;;;;;;-2.00;79.80;;;;;;5024954;28;87294;-42
2022/01/20 10:08:59;;;;;;;;;;;-2.00;79.80;;;;;;5024855;28;89024;-42
2022/01/20 10:11:25;;;;;;;;;;;-2.00;79.90;;;;;;5024464;28;89602;-42
2022/01/20 10:13:51;;;;;;;;;;;-2.00;79.70;;;;;;5024850;28;87140;-41
2022/01/20 10:16:17;;;;;;;;;;;-2.00;79.80;;;;;;5024850;28;87269;-42
2022/01/20 10:18:45;;;;;;;;;;;-2.00;79.70;;;;;;5024676;28;89614;-42
2022/01/20 10:21:11;;;;;;;;;;;-2.00;79.70;;;;;;5025107;28;86438;-42
2022/01/20 10:23:42;;;;;;;;;;;-2.00;79.80;;;;;;5027037;28;88698;-42
2022/01/20 10:26:15;;;;;;;;;;;-2.00;79.80;;;;;;5024616;28;87177;-41
2022/01/20 10:28:46;;;;;;;;;;;-2.00;79.80;;;;;;5024092;28;88938;-42
2022/01/20 10:31:12;;;;;;;;;;;-1.90;79.90;;;;;;5024401;28;89523;-41
2022/01/20 10:33:41;;;;;;;;;;;-1.90;79.80;;;;;;5024558;28;87123;-42
2022/01/20 10:36:07;;;;;;;;;;;-1.80;79.50;;;;;;5024427;28;88788;-42
2022/01/20 10:38:33;;;;;;;;;;;-1.90;79.50;;;;;;5023970;28;89531;-42
2022/01/20 10:40:59;;;;;;;;;;;-1.80;79.70;;;;;;5024194;28;87138;-42
2022/01/20 10:43:26;;;;;;;;;;;-1.90;79.80;;;;;;5024084;28;88601;-42
2022/01/20 10:46:08;;;;;;;;;;;-1.80;79.80;;;;;;5027590;28;88814;-41
2022/01/20 10:48:34;;;;;;;;;;;-1.80;79.80;;;;;;5024242;28;87535;-42
2022/01/20 10:51:00;;;;;;;;;;;-1.70;79.80;;;;;;5023816;28;89901;-42
2022/01/20 10:53:25;;;;;;;;;;;-1.70;80.10;;;;;;5023495;28;88079;-41
2022/01/20 10:55:51;;;;;;;;;;;-1.60;80.00;;;;;;5024226;28;89626;-42
2022/01/20 10:58:22;;;;;;;;;;;-1.60;80.00;;;;;;5023838;28;89257;-41
2022/01/20 11:00:49;;;;;;;;;;;-1.50;79.90;;;;;;5024289;28;87118;-41
2022/01/20 11:03:15;;;;;;;;;;;-1.50;80.00;;;;;;5023918;28;88827;-42
2022/01/20 11:05:41;;;;;;;;;;;-1.50;79.90;;;;;;5022880;28;88202;-41
2022/01/20 11:08:07;;;;;;;;;;;-1.50;80.00;;;;;;5026755;28;87155;-42
2022/01/20 11:10:33;;;;;;;;;;;-1.50;79.80;;;;;;5023722;28;88794;-41
2022/01/20 11:12:58;;;;;;;;;;;-1.50;79.90;;;;;;5023797;28;87026;-42
2022/01/20 11:15:29;;;;;;;;;;;-1.50;79.90;;;;;;5023814;28;89168;-41
2022/01/20 11:17:55;;;;;;;;;;;-1.50;79.80;;;;;;5023105;28;88897;-41
2022/01/20 11:20:23;;;;;;;;;;;-1.40;79.90;;;;;;5023710;28;87165;-42
2022/01/20 11:22:56;;;;;;;;;;;-1.40;80.00;;;;;;5023734;28;88642;-42
2022/01/20 11:25:23;;;;;;;;;;;-1.40;80.10;;;;;;5023344;28;88038;-42
2022/01/20 11:28:02;;;;;;;;;;;-1.40;80.30;;;;;;5023778;28;87181;-41
2022/01/20 11:30:29;;;;;;;;;;;-1.40;80.30;;;;;;5026545;28;88926;-41
2022/01/20 11:32:57;;;;;;;;;;;-1.30;80.10;;;;;;5023547;28;87033;-41
2022/01/20 11:35:34;;;;;;;;;;;-1.30;80.00;;;;;;5024005;28;88707;-41
2022/01/20 11:38:00;;;;;;;;;;;-1.30;79.90;;;;;;5022882;28;89429;-41
2022/01/20 11:43:11;;;;;;;;;;;-1.30;80.20;;;;;;5021871;28;87957;-41
2022/01/20 11:45:38;;;;;;;;;;;-1.30;80.60;;;;;;5023097;28;89703;-41
2022/01/20 11:48:11;;;;;;;;;;;-1.30;80.40;;;;;;5023372;28;87038;-42
2022/01/20 11:50:36;;;;;;;;;;;-1.30;80.30;;;;;;5023469;28;88906;-42
2022/01/20 11:53:12;;;;;;;;;;;-1.30;80.40;;;;;;5025915;28;89816;-42
2022/01/20 11:55:48;;;;;;;;;;;-1.20;80.60;;;;;;5023479;28;88810;-42
2022/01/20 11:58:14;;;;;;;;;;;-1.20;80.40;;;;;;5022832;28;89258;-41
2022/01/20 12:00:41;;;;;;;;;;;-1.10;80.00;;;;;;5023567;28;86426;-41
2022/01/20 12:03:10;;;;;;;;;;;-1.10;79.90;;;;;;5023202;28;88086;-42
2022/01/20 12:05:37;;;;;;;;;;;-1.20;80.00;;;;;;5023067;28;89462;-42
2022/01/20 12:08:05;;;;;;;;;;;-1.10;79.90;;;;;;5022421;28;87896;-42
2022/01/20 12:10:31;;;;;;;;;;;-1.20;80.00;;;;;;5023221;28;89779;-42
2022/01/20 12:13:16;;;;;;;;;;;-1.10;80.20;;;;;;5022831;28;89547;-41
2022/01/20 12:15:48;;;;;;;;;;;-1.10;79.90;;;;;;5026352;28;86925;-42
2022/01/20 12:18:14;;;;;;;;;;;-1.10;80.00;;;;;;5024969;28;89363;-41
2022/01/20 12:20:39;;;;;;;;;;;-1.10;79.60;;;;;;5026676;28;87156;-42
2022/01/20 12:23:05;;;;;;;;;;;-1.10;80.00;;;;;;5026502;28;88960;-42
2022/01/20 12:25:33;;;;;;;;;;;-1.10;79.60;;;;;;5026614;28;88940;-41
2022/01/20 12:28:16;;;;;;;;;;;-1.00;79.60;;;;;;5026413;28;87116;-42
2022/01/20 12:30:50;;;;;;;;;;;-1.00;80.00;;;;;;5026814;28;88832;-42
2022/01/20 12:33:17;;;;;;;;;;;-1.00;79.30;;;;;;5025482;28;90199;-41
2022/01/20 12:35:42;;;;;;;;;;;-1.00;79.50;;;;;;5029185;28;86889;-41
2022/01/20 12:38:26;;;;;;;;;;;-0.90;79.60;;;;;;5025906;28;89244;-41
2022/01/20 12:41:02;;;;;;;;;;;-0.90;79.20;;;;;;5025812;28;87117;-42
2022/01/20 12:43:39;;;;;;;;;;;-0.90;79.30;;;;;;5026315;28;88681;-42
2022/01/20 12:46:06;;;;;;;;;;;-0.90;79.40;;;;;;5025873;28;89341;-42
2022/01/20 12:48:31;;;;;;;;;;;-0.80;79.30;;;;;;5026062;28;87152;-42
2022/01/20 12:51:02;;;;;;;;;;;-0.80;79.50;;;;;;5026495;28;87507;-42
2022/01/20 12:53:38;;;;;;;;;;;-0.80;79.30;;;;;;5025772;28;89339;-42
2022/01/20 12:56:05;;;;;;;;;;;-0.80;79.10;;;;;;5026001;28;86948;-42
2022/01/20 12:58:30;;;;;;;;;;;-0.80;79.10;;;;;;5027913;28;88877;-42
2022/01/20 13:00:58;;;;;;;;;;;-0.80;79.20;;;;;;5025953;28;86906;-42
2022/01/20 13:03:32;;;;;;;;;;;-0.80;79.30;;;;;;5025718;28;87886;-42
2022/01/20 13:05:59;;;;;;;;;;;-0.80;79.40;;;;;;5025723;28;89780;-42
2022/01/20 13:08:30;;;;;;;;;;;-0.80;79.30;;;;;;5026011;28;87085;-42
2022/01/20 13:11:12;;;;;;;;;;;-0.70;79.30;;;;;;5026005;28;88950;-42
2022/01/20 13:13:38;;;;;;;;;;;-0.70;78.90;;;;;;5025505;28;89302;-42
2022/01/20 13:16:13;;;;;;;;;;;-0.70;79.20;;;;;;5025882;28;86544;-42
2022/01/20 13:18:39;;;;;;;;;;;-0.70;79.10;;;;;;5025793;28;87400;-42
2022/01/20 13:21:05;;;;;;;;;;;-0.70;79.10;;;;;;5028432;28;87307;-42
2022/01/20 13:23:56;;;;;;;;;;;-0.70;78.80;;;;;;5025020;28;88681;-42
2022/01/20 13:26:22;;;;;;;;;;;-0.60;78.90;;;;;;5025104;28;89490;-42
2022/01/20 13:28:57;;;;;;;;;;;-0.60;79.20;;;;;;5024619;28;87043;-42
2022/01/20 13:31:23;;;;;;;;;;;-0.60;78.80;;;;;;5025407;28;88938;-42
2022/01/20 13:33:49;;;;;;;;;;;-0.60;78.90;;;;;;5025057;28;89833;-42
2022/01/20 13:36:15;;;;;;;;;;;-0.60;79.00;;;;;;5025500;28;87214;-42
2022/01/20 13:38:47;;;;;;;;;;;-0.60;79.30;;;;;;5025438;28;88750;-42
2022/01/20 13:41:14;;;;;;;;;;;-0.60;79.70;;;;;;5024778;28;88791;-42
2022/01/20 13:46:29;;;;;;;;;;;-0.50;79.80;;;;;;5025305;28;87053;-42
2022/01/20 13:49:05;;;;;;;;;;;-0.50;79.20;;;;;;5024656;28;88035;-42
2022/01/20 13:51:31;;;;;;;;;;;-0.50;78.90;;;;;;5025464;28;87613;-42
2022/01/20 13:53:56;;;;;;;;;;;-0.40;78.90;;;;;;5024643;28;89857;-42
2022/01/20 13:56:22;;;;;;;;;;;-0.40;79.00;;;;;;5025114;28;87136;-42
2022/01/20 13:58:47;;;;;;;;;;;-0.40;79.00;;;;;;5025254;28;88719;-42
2022/01/20 14:01:13;;;;;;;;;;;-0.40;79.10;;;;;;5024668;28;89615;-42
2022/01/20 14:03:42;;;;;;;;;;;-0.40;79.40;;;;;;5024996;28;87146;-42
2022/01/20 14:06:07;;;;;;;;;;;-0.40;79.50;;;;;;5028102;28;88925;-42
2022/01/20 14:08:36;;;;;;;;;;;-0.30;79.60;;;;;;5024951;28;86834;-42
2022/01/20 14:11:02;;;;;;;;;;;-0.40;79.50;;;;;;5025008;28;88737;-42
2022/01/20 14:13:27;;;;;;;;;;;-0.30;80.00;;;;;;5023809;28;89538;-42
2022/01/20 14:15:55;;;;;;;;;;;-0.30;79.90;;;;;;5024860;28;87222;-42
2022/01/20 14:18:22;;;;;;;;;;;-0.30;80.00;;;;;;5024799;28;88871;-43
2022/01/20 14:20:48;;;;;;;;;;;-0.30;79.80;;;;;;5022946;28;91207;-42
2022/01/20 14:23:14;;;;;;;;;;;-0.30;79.90;;;;;;5024586;28;86995;-42
2022/01/20 14:25:42;;;;;;;;;;;-0.20;79.30;;;;;;5027208;28;88660;-42
2022/01/20 14:28:07;;;;;;;;;;;-0.20;79.60;;;;;;5024455;28;86981;-43
2022/01/20 14:30:33;;;;;;;;;;;-0.20;79.30;;;;;;5025205;28;88868;-42
2022/01/20 14:32:59;;;;;;;;;;;-0.20;79.50;;;;;;5024093;28;89238;-42
2022/01/20 14:35:27;;;;;;;;;;;-0.20;80.00;;;;;;5024250;28;87174;-42
2022/01/20 14:37:53;;;;;;;;;;;-0.20;80.20;;;;;;5023937;28;88879;-42
2022/01/20 14:40:19;;;;;;;;;;;-0.10;80.10;;;;;;5024063;28;89556;-42
2022/01/20 14:42:47;;;;;;;;;;;-0.10;80.20;;;;;;5024297;28;87005;-43
2022/01/20 14:45:16;;;;;;;;;;;-0.10;80.60;;;;;;5024328;28;88161;-42
2022/01/20 14:47:42;;;;;;;;;;;-0.10;80.50;;;;;;5026774;28;89740;-42
2022/01/20 14:50:09;;;;;;;;;;;-0.10;80.20;;;;;;5024164;28;89066;-42
2022/01/20 14:52:34;;;;;;;;;;;0.00;79.90;;;;;;5023869;28;89600;-42
2022/01/20 14:55:03;;;;;;;;;;;0.00;79.70;;;;;;5024663;28;86152;-43
2022/01/20 14:57:28;;;;;;;;;;;0.00;79.90;;;;;;5024244;28;88157;-43
2022/01/20 14:59:54;;;;;;;;;;;0.00;80.30;;;;;;5023706;28;89594;-43
2022/01/20 15:02:19;;;;;;;;;;;0.00;80.20;;;;;;5023609;28;88136;-43
2022/01/20 15:04:45;;;;;;;;;;;0.00;80.10;;;;;;5023628;28;90007;-43
2022/01/20 15:07:11;;;;;;;;;;;0.00;80.10;;;;;;5023661;28;88860;-43
2022/01/20 15:09:37;;;;;;;;;;;0.10;80.30;;;;;;5026968;28;87139;-43
2022/01/20 15:12:03;;;;;;;;;;;0.10;80.60;;;;;;5023829;28;89492;-43
2022/01/20 15:14:29;;;;;;;;;;;0.10;80.70;;;;;;5023856;28;87123;-43
2022/01/20 15:16:54;;;;;;;;;;;0.10;80.70;;;;;;5022664;28;90665;-43
2022/01/20 15:19:20;;;;;;;;;;;0.10;80.80;;;;;;5023730;28;88614;-43
2022/01/20 15:21:45;;;;;;;;;;;0.10;80.70;;;;;;5023804;28;87196;-42
2022/01/20 15:24:11;;;;;;;;;;;0.10;80.90;;;;;;5023894;28;87806;-43
2022/01/20 15:26:37;;;;;;;;;;;0.10;80.90;;;;;;5022613;28;90358;-43
2022/01/20 15:29:03;;;;;;;;;;;0.10;80.90;;;;;;5023684;28;87148;-43